[CLOSED] PG ATC @ EGLC London

  • RWY09 in use
  • Patterns Allowed
  • Winds from East (100 degrees) at 9KTS
  • Visibility 10 km or more

METAR: EGLC 011020Z 10009KT CAVOK 05/01 Q1021

Try pop along in a minute